sensor_id;sensor_type;location;lat;lon;timestamp;pressure;altitude;pressure_sealevel;temperature;humidity
47716;BME280;33476;50.984;3.538;2023-06-22T00:01:58;101939.91;;;22.35;52.41
47716;BME280;33476;50.984;3.538;2023-06-22T00:04:24;101931.31;;;22.31;52.40
47716;BME280;33476;50.984;3.538;2023-06-22T00:06:50;101933.38;;;22.28;52.57
47716;BME280;33476;50.984;3.538;2023-06-22T00:09:15;101928.19;;;22.26;52.69
47716;BME280;33476;50.984;3.538;2023-06-22T00:11:41;101928.06;;;22.28;52.52
47716;BME280;33476;50.984;3.538;2023-06-22T00:14:06;101925.88;;;22.22;52.72
47716;BME280;33476;50.984;3.538;2023-06-22T00:16:32;101915.84;;;22.14;52.87
47716;BME280;33476;50.984;3.538;2023-06-22T00:18:58;101919.47;;;22.13;52.86
47716;BME280;33476;50.984;3.538;2023-06-22T00:21:29;101903.00;;;22.08;53.18
47716;BME280;33476;50.984;3.538;2023-06-22T00:23:54;101908.31;;;22.08;53.36
47716;BME280;33476;50.984;3.538;2023-06-22T00:26:20;101902.25;;;22.06;53.40
47716;BME280;33476;50.984;3.538;2023-06-22T00:28:46;101897.91;;;22.05;53.68
47716;BME280;33476;50.984;3.538;2023-06-22T00:31:11;101901.66;;;22.02;53.70
47716;BME280;33476;50.984;3.538;2023-06-22T00:33:37;101895.59;;;22.00;53.61
47716;BME280;33476;50.984;3.538;2023-06-22T00:36:02;101901.16;;;21.97;53.92
47716;BME280;33476;50.984;3.538;2023-06-22T00:38:28;101903.13;;;21.95;53.80
47716;BME280;33476;50.984;3.538;2023-06-22T00:40:54;101896.94;;;21.95;53.87
47716;BME280;33476;50.984;3.538;2023-06-22T00:43:19;101903.84;;;21.97;53.80
47716;BME280;33476;50.984;3.538;2023-06-22T00:45:44;101900.81;;;21.91;54.19
47716;BME280;33476;50.984;3.538;2023-06-22T00:48:12;101905.75;;;21.84;54.45
47716;BME280;33476;50.984;3.538;2023-06-22T00:50:37;101910.22;;;21.83;54.55
47716;BME280;33476;50.984;3.538;2023-06-22T00:53:06;101908.91;;;21.78;54.67
47716;BME280;33476;50.984;3.538;2023-06-22T00:55:34;101915.06;;;21.78;54.75
47716;BME280;33476;50.984;3.538;2023-06-22T00:58:06;101909.63;;;21.80;54.65
47716;BME280;33476;50.984;3.538;2023-06-22T01:00:35;101911.78;;;21.75;54.81
47716;BME280;33476;50.984;3.538;2023-06-22T01:03:01;101911.91;;;21.73;54.68
47716;BME280;33476;50.984;3.538;2023-06-22T01:05:27;101909.50;;;21.70;55.02
47716;BME280;33476;50.984;3.538;2023-06-22T01:10:51;101906.59;;;21.62;55.14
47716;BME280;33476;50.984;3.538;2023-06-22T01:13:32;101917.09;;;21.64;54.97
47716;BME280;33476;50.984;3.538;2023-06-22T01:16:03;101911.78;;;21.64;55.16
47716;BME280;33476;50.984;3.538;2023-06-22T01:18:35;101899.59;;;21.61;55.25
47716;BME280;33476;50.984;3.538;2023-06-22T01:21:02;101900.44;;;21.62;55.38
47716;BME280;33476;50.984;3.538;2023-06-22T01:26:22;101898.38;;;21.54;55.54
47716;BME280;33476;50.984;3.538;2023-06-22T01:28:54;101899.94;;;21.56;55.66
47716;BME280;33476;50.984;3.538;2023-06-22T01:31:23;101890.50;;;21.52;55.71
47716;BME280;33476;50.984;3.538;2023-06-22T01:33:54;101888.31;;;21.46;55.96
47716;BME280;33476;50.984;3.538;2023-06-22T01:36:21;101887.59;;;21.44;55.89
47716;BME280;33476;50.984;3.538;2023-06-22T01:38:48;101882.50;;;21.41;56.17
47716;BME280;33476;50.984;3.538;2023-06-22T01:41:14;101878.53;;;21.36;56.31
47716;BME280;33476;50.984;3.538;2023-06-22T01:43:41;101884.91;;;21.33;56.43
47716;BME280;33476;50.984;3.538;2023-06-22T01:46:07;101882.38;;;21.31;56.51
47716;BME280;33476;50.984;3.538;2023-06-22T01:48:33;101887.81;;;21.30;56.56
47716;BME280;33476;50.984;3.538;2023-06-22T01:50:59;101901.22;;;21.28;56.64
47716;BME280;33476;50.984;3.538;2023-06-22T01:53:25;101893.13;;;21.30;56.55
47716;BME280;33476;50.984;3.538;2023-06-22T01:55:50;101900.41;;;21.26;56.71
47716;BME280;33476;50.984;3.538;2023-06-22T01:58:15;101903.31;;;21.23;56.83
47716;BME280;33476;50.984;3.538;2023-06-22T02:00:47;101908.03;;;21.20;57.06
47716;BME280;33476;50.984;3.538;2023-06-22T02:03:19;101901.03;;;21.19;57.18
47716;BME280;33476;50.984;3.538;2023-06-22T02:05:50;101907.19;;;21.19;56.90
47716;BME280;33476;50.984;3.538;2023-06-22T02:08:25;101910.19;;;21.15;57.24
47716;BME280;33476;50.984;3.538;2023-06-22T02:10:54;101908.38;;;21.15;57.38
47716;BME280;33476;50.984;3.538;2023-06-22T02:13:23;101903.28;;;21.12;57.44
47716;BME280;33476;50.984;3.538;2023-06-22T02:15:49;101899.91;;;21.10;57.57
47716;BME280;33476;50.984;3.538;2023-06-22T02:18:15;101898.94;;;21.11;57.62
47716;BME280;33476;50.984;3.538;2023-06-22T02:20:40;101889.28;;;21.10;57.71
47716;BME280;33476;50.984;3.538;2023-06-22T02:23:06;101888.66;;;21.07;57.92
47716;BME280;33476;50.984;3.538;2023-06-22T02:25:32;101877.31;;;21.04;57.99
47716;BME280;33476;50.984;3.538;2023-06-22T02:27:58;101876.47;;;21.04;57.92
47716;BME280;33476;50.984;3.538;2023-06-22T02:30:23;101881.13;;;21.00;58.14
47716;BME280;33476;50.984;3.538;2023-06-22T02:32:49;101871.47;;;20.99;58.06
47716;BME280;33476;50.984;3.538;2023-06-22T02:35:14;101881.38;;;20.97;58.21
47716;BME280;33476;50.984;3.538;2023-06-22T02:37:40;101876.41;;;20.93;58.29
47716;BME280;33476;50.984;3.538;2023-06-22T02:40:10;101877.38;;;20.92;58.56
47716;BME280;33476;50.984;3.538;2023-06-22T02:42:39;101872.91;;;20.92;58.49
47716;BME280;33476;50.984;3.538;2023-06-22T02:45:04;101872.91;;;20.92;58.39
47716;BME280;33476;50.984;3.538;2023-06-22T02:47:30;101872.91;;;20.92;58.32
47716;BME280;33476;50.984;3.538;2023-06-22T02:49:55;101866.88;;;20.90;58.47
47716;BME280;33476;50.984;3.538;2023-06-22T02:52:20;101859.03;;;20.89;58.50
47716;BME280;33476;50.984;3.538;2023-06-22T02:54:46;101862.84;;;20.85;58.60
47716;BME280;33476;50.984;3.538;2023-06-22T02:57:11;101861.28;;;20.82;58.62
47716;BME280;33476;50.984;3.538;2023-06-22T02:59:42;101854.03;;;20.84;58.58
47716;BME280;33476;50.984;3.538;2023-06-22T03:02:08;101841.72;;;20.83;58.52
47716;BME280;33476;50.984;3.538;2023-06-22T03:04:34;101855.97;;;20.82;58.47
47716;BME280;33476;50.984;3.538;2023-06-22T03:06:59;101855.25;;;20.80;58.41
47716;BME280;33476;50.984;3.538;2023-06-22T03:09:27;101853.56;;;20.79;58.34
47716;BME280;33476;50.984;3.538;2023-06-22T03:11:53;101863.22;;;20.80;58.43
47716;BME280;33476;50.984;3.538;2023-06-22T03:14:18;101865.03;;;20.80;58.37
47716;BME280;33476;50.984;3.538;2023-06-22T03:16:44;101858.88;;;20.79;58.32
47716;BME280;33476;50.984;3.538;2023-06-22T03:19:09;101848.97;;;20.81;58.27
47716;BME280;33476;50.984;3.538;2023-06-22T03:21:36;101846.56;;;20.78;58.31
47716;BME280;33476;50.984;3.538;2023-06-22T03:24:04;101839.56;;;20.77;58.19
47716;BME280;33476;50.984;3.538;2023-06-22T03:26:29;101846.66;;;20.76;58.22
47716;BME280;33476;50.984;3.538;2023-06-22T03:28:55;101847.72;;;20.74;58.32
47716;BME280;33476;50.984;3.538;2023-06-22T03:31:20;101844.34;;;20.72;58.26
47716;BME280;33476;50.984;3.538;2023-06-22T03:33:46;101844.34;;;20.72;58.26
47716;BME280;33476;50.984;3.538;2023-06-22T03:36:12;101854.84;;;20.73;58.13
47716;BME280;33476;50.984;3.538;2023-06-22T03:38:37;101855.81;;;20.72;57.95
47716;BME280;33476;50.984;3.538;2023-06-22T03:41:03;101856.06;;;20.69;58.10
47716;BME280;33476;50.984;3.538;2023-06-22T03:43:28;101848.09;;;20.69;58.11
47716;BME280;33476;50.984;3.538;2023-06-22T03:45:54;101849.25;;;20.65;58.08
47716;BME280;33476;50.984;3.538;2023-06-22T03:48:19;101851.91;;;20.65;58.39
47716;BME280;33476;50.984;3.538;2023-06-22T03:50:44;101851.78;;;20.67;58.33
47716;BME280;33476;50.984;3.538;2023-06-22T03:53:10;101853.41;;;20.69;58.31
47716;BME280;33476;50.984;3.538;2023-06-22T03:55:36;101851.78;;;20.67;58.21
47716;BME280;33476;50.984;3.538;2023-06-22T03:58:01;101853.41;;;20.69;58.15
47716;BME280;33476;50.984;3.538;2023-06-22T04:00:31;101853.88;;;20.74;58.18
47716;BME280;33476;50.984;3.538;2023-06-22T04:02:57;101856.78;;;20.71;58.26
47716;BME280;33476;50.984;3.538;2023-06-22T04:05:22;101852.56;;;20.69;58.35
47716;BME280;33476;50.984;3.538;2023-06-22T04:07:49;101861.25;;;20.71;58.23
47716;BME280;33476;50.984;3.538;2023-06-22T04:10:14;101868.25;;;20.72;58.27
47716;BME280;33476;50.984;3.538;2023-06-22T04:12:40;101866.31;;;20.74;58.26
47716;BME280;33476;50.984;3.538;2023-06-22T04:15:05;101860.16;;;20.73;58.40
47716;BME280;33476;50.984;3.538;2023-06-22T04:17:31;101859.06;;;20.76;58.53
47716;BME280;33476;50.984;3.538;2023-06-22T04:19:56;101869.59;;;20.78;58.31
47716;BME280;33476;50.984;3.538;2023-06-22T04:22:21;101863.31;;;20.79;58.42
47716;BME280;33476;50.984;3.538;2023-06-22T04:24:47;101862.25;;;20.81;58.21
47716;BME280;33476;50.984;3.538;2023-06-22T04:27:12;101846.06;;;20.84;58.60
47716;BME280;33476;50.984;3.538;2023-06-22T04:29:37;101842.25;;;20.88;58.57
47716;BME280;33476;50.984;3.538;2023-06-22T04:32:08;101842.97;;;20.90;58.58
47716;BME280;33476;50.984;3.538;2023-06-22T04:34:34;101837.41;;;20.93;58.41
47716;BME280;33476;50.984;3.538;2023-06-22T04:36:59;101843.09;;;21.00;58.36
47716;BME280;33476;50.984;3.538;2023-06-22T04:39:24;101834.94;;;21.03;58.32
47716;BME280;33476;50.984;3.538;2023-06-22T04:41:52;101842.78;;;21.04;58.44
47716;BME280;33476;50.984;3.538;2023-06-22T04:44:18;101842.41;;;21.09;58.45
47716;BME280;33476;50.984;3.538;2023-06-22T04:46:53;101852.69;;;21.14;58.50
47716;BME280;33476;50.984;3.538;2023-06-22T04:49:20;101846.94;;;21.20;58.58
47716;BME280;33476;50.984;3.538;2023-06-22T04:51:47;101851.03;;;21.24;58.47
47716;BME280;33476;50.984;3.538;2023-06-22T04:54:12;101862.06;;;21.30;58.65
47716;BME280;33476;50.984;3.538;2023-06-22T04:56:38;101857.13;;;21.37;58.81
47716;BME280;33476;50.984;3.538;2023-06-22T04:59:06;101847.59;;;21.46;58.67
47716;BME280;33476;50.984;3.538;2023-06-22T05:01:32;101849.81;;;21.52;59.09
47716;BME280;33476;50.984;3.538;2023-06-22T05:03:58;101851.72;;;21.61;58.78
47716;BME280;33476;50.984;3.538;2023-06-22T05:06:26;101846.66;;;21.69;59.14
47716;BME280;33476;50.984;3.538;2023-06-22T05:08:56;101849.66;;;21.76;59.08
47716;BME280;33476;50.984;3.538;2023-06-22T05:11:28;101853.53;;;21.83;59.57
47716;BME280;33476;50.984;3.538;2023-06-22T05:13:53;101849.19;;;21.93;59.34
47716;BME280;33476;50.984;3.538;2023-06-22T05:16:20;101845.81;;;22.02;59.37
47716;BME280;33476;50.984;3.538;2023-06-22T05:18:53;101852.22;;;22.11;59.36
47716;BME280;33476;50.984;3.538;2023-06-22T05:21:23;101853.03;;;22.23;59.23
47716;BME280;33476;50.984;3.538;2023-06-22T05:23:49;101848.03;;;22.40;58.42
47716;BME280;33476;50.984;3.538;2023-06-22T05:26:14;101842.09;;;22.48;58.54
47716;BME280;33476;50.984;3.538;2023-06-22T05:28:40;101842.94;;;22.49;59.09
47716;BME280;33476;50.984;3.538;2023-06-22T05:31:05;101854.28;;;22.51;59.23
47716;BME280;33476;50.984;3.538;2023-06-22T05:33:31;101844.53;;;22.51;59.53
47716;BME280;33476;50.984;3.538;2023-06-22T05:35:56;101840.13;;;22.50;59.54
47716;BME280;33476;50.984;3.538;2023-06-22T05:38:21;101836.84;;;22.58;59.73
47716;BME280;33476;50.984;3.538;2023-06-22T05:40:47;101843.63;;;22.62;59.81
47716;BME280;33476;50.984;3.538;2023-06-22T05:43:12;101835.97;;;22.68;59.47
47716;BME280;33476;50.984;3.538;2023-06-22T05:45:37;101832.69;;;22.76;59.79
47716;BME280;33476;50.984;3.538;2023-06-22T05:48:03;101826.97;;;22.81;59.40
47716;BME280;33476;50.984;3.538;2023-06-22T05:50:28;101832.78;;;22.86;59.48
47716;BME280;33476;50.984;3.538;2023-06-22T05:52:54;101833.84;;;22.94;59.48
47716;BME280;33476;50.984;3.538;2023-06-22T05:55:19;101826.19;;;23.01;59.43
47716;BME280;33476;50.984;3.538;2023-06-22T05:57:45;101835.31;;;23.08;59.35
47716;BME280;33476;50.984;3.538;2023-06-22T06:00:10;101835.78;;;23.13;59.56
47716;BME280;33476;50.984;3.538;2023-06-22T06:02:37;101830.78;;;23.20;59.33
47716;BME280;33476;50.984;3.538;2023-06-22T06:05:02;101827.13;;;23.21;59.32
47716;BME280;33476;50.984;3.538;2023-06-22T06:07:28;101817.19;;;23.23;58.84
47716;BME280;33476;50.984;3.538;2023-06-22T06:09:54;101818.47;;;23.29;58.94
47716;BME280;33476;50.984;3.538;2023-06-22T06:12:19;101804.75;;;23.33;58.92
47716;BME280;33476;50.984;3.538;2023-06-22T06:14:45;101812.34;;;23.38;58.65
47716;BME280;33476;50.984;3.538;2023-06-22T06:17:10;101808.56;;;23.40;58.88
47716;BME280;33476;50.984;3.538;2023-06-22T06:19:36;101797.19;;;23.38;58.84
47716;BME280;33476;50.984;3.538;2023-06-22T06:22:01;101797.78;;;23.42;59.40
47716;BME280;33476;50.984;3.538;2023-06-22T06:24:27;101794.56;;;23.48;59.09
47716;BME280;33476;50.984;3.538;2023-06-22T06:26:52;101797.56;;;23.54;59.00
47716;BME280;33476;50.984;3.538;2023-06-22T06:29:17;101793.66;;;23.59;59.16
47716;BME280;33476;50.984;3.538;2023-06-22T06:31:43;101783.59;;;23.62;58.81
47716;BME280;33476;50.984;3.538;2023-06-22T06:34:08;101781.09;;;23.70;58.79
47716;BME280;33476;50.984;3.538;2023-06-22T06:36:33;101773.38;;;23.77;58.71
47716;BME280;33476;50.984;3.538;2023-06-22T06:38:59;101779.03;;;23.84;58.71
47716;BME280;33476;50.984;3.538;2023-06-22T06:41:24;101787.31;;;23.90;58.56
47716;BME280;33476;50.984;3.538;2023-06-22T06:43:49;101787.63;;;23.97;58.36
47716;BME280;33476;50.984;3.538;2023-06-22T06:46:15;101782.28;;;24.06;58.36
47716;BME280;33476;50.984;3.538;2023-06-22T06:48:40;101784.28;;;24.14;58.02
47716;BME280;33476;50.984;3.538;2023-06-22T06:51:06;101780.22;;;24.20;57.63
47716;BME280;33476;50.984;3.538;2023-06-22T06:53:35;101778.69;;;24.27;57.56
47716;BME280;33476;50.984;3.538;2023-06-22T06:56:00;101771.69;;;24.35;57.52
47716;BME280;33476;50.984;3.538;2023-06-22T06:58:25;101777.88;;;24.46;57.30
47716;BME280;33476;50.984;3.538;2023-06-22T07:00:51;101778.56;;;24.57;57.22
47716;BME280;33476;50.984;3.538;2023-06-22T07:03:16;101770.56;;;24.67;56.84
47716;BME280;33476;50.984;3.538;2023-06-22T07:05:41;101767.56;;;24.80;57.18
47716;BME280;33476;50.984;3.538;2023-06-22T07:08:07;101765.47;;;24.93;56.72
47716;BME280;33476;50.984;3.538;2023-06-22T07:10:33;101759.25;;;25.02;56.41
47716;BME280;33476;50.984;3.538;2023-06-22T07:12:58;101745.03;;;25.11;56.33
47716;BME280;33476;50.984;3.538;2023-06-22T07:15:24;101742.31;;;25.21;56.19
47716;BME280;33476;50.984;3.538;2023-06-22T07:17:49;101733.72;;;25.27;56.24
47716;BME280;33476;50.984;3.538;2023-06-22T07:20:14;101728.47;;;25.35;56.03
47716;BME280;33476;50.984;3.538;2023-06-22T07:22:42;101722.25;;;25.44;55.76
47716;BME280;33476;50.984;3.538;2023-06-22T07:25:08;101728.69;;;25.52;55.58
47716;BME280;33476;50.984;3.538;2023-06-22T07:27:43;101718.09;;;25.60;55.33
47716;BME280;33476;50.984;3.538;2023-06-22T07:30:09;101724.69;;;25.65;55.03
47716;BME280;33476;50.984;3.538;2023-06-22T07:32:35;101718.03;;;25.69;55.04
47716;BME280;33476;50.984;3.538;2023-06-22T07:35:01;101721.84;;;25.67;55.16
47716;BME280;33476;50.984;3.538;2023-06-22T07:37:28;101715.66;;;25.66;54.84
47716;BME280;33476;50.984;3.538;2023-06-22T07:39:54;101721.13;;;25.74;54.57
47716;BME280;33476;50.984;3.538;2023-06-22T07:42:26;101729.00;;;25.76;54.64
47716;BME280;33476;50.984;3.538;2023-06-22T07:44:51;101726.16;;;25.77;54.63
47716;BME280;33476;50.984;3.538;2023-06-22T07:47:17;101720.50;;;25.81;54.12
47716;BME280;33476;50.984;3.538;2023-06-22T07:49:50;101718.38;;;25.84;54.20
47716;BME280;33476;50.984;3.538;2023-06-22T07:52:15;101728.94;;;25.86;54.03
47716;BME280;33476;50.984;3.538;2023-06-22T07:54:41;101721.59;;;25.88;53.83
47716;BME280;33476;50.984;3.538;2023-06-22T07:57:06;101722.91;;;25.84;53.70
47716;BME280;33476;50.984;3.538;2023-06-22T07:59:31;101732.88;;;25.82;53.61
47716;BME280;33476;50.984;3.538;2023-06-22T08:01:57;101726.00;;;25.79;53.27
47716;BME280;33476;50.984;3.538;2023-06-22T08:04:23;101717.53;;;25.84;53.23
47716;BME280;33476;50.984;3.538;2023-06-22T08:06:48;101718.66;;;25.81;52.86
47716;BME280;33476;50.984;3.538;2023-06-22T08:09:14;101710.28;;;25.76;52.66
47716;BME280;33476;50.984;3.538;2023-06-22T08:11:40;101716.91;;;25.72;52.58
47716;BME280;33476;50.984;3.538;2023-06-22T08:14:05;101712.38;;;25.72;52.89
47716;BME280;33476;50.984;3.538;2023-06-22T08:16:30;101716.63;;;25.75;52.67
47716;BME280;33476;50.984;3.538;2023-06-22T08:18:56;101708.81;;;25.82;53.35
47716;BME280;33476;50.984;3.538;2023-06-22T08:21:21;101719.22;;;25.85;53.28
47716;BME280;33476;50.984;3.538;2023-06-22T08:23:47;101716.00;;;25.81;53.49
47716;BME280;33476;50.984;3.538;2023-06-22T08:26:14;101713.03;;;25.84;53.27
47716;BME280;33476;50.984;3.538;2023-06-22T08:28:40;101709.34;;;25.85;53.33
47716;BME280;33476;50.984;3.538;2023-06-22T08:31:05;101713.19;;;25.83;53.39
47716;BME280;33476;50.984;3.538;2023-06-22T08:33:30;101715.03;;;25.82;53.15
47716;BME280;33476;50.984;3.538;2023-06-22T08:35:57;101714.47;;;25.79;53.19
47716;BME280;33476;50.984;3.538;2023-06-22T08:38:23;101717.47;;;25.75;53.34
47716;BME280;33476;50.984;3.538;2023-06-22T08:40:48;101721.25;;;25.73;53.14
47716;BME280;33476;50.984;3.538;2023-06-22T08:43:14;101715.22;;;25.71;53.23
47716;BME280;33476;50.984;3.538;2023-06-22T08:45:39;101720.41;;;25.72;53.47
47716;BME280;33476;50.984;3.538;2023-06-22T08:48:05;101719.16;;;25.67;53.41
47716;BME280;33476;50.984;3.538;2023-06-22T08:50:30;101720.44;;;25.63;53.23
47716;BME280;33476;50.984;3.538;2023-06-22T08:52:56;101723.97;;;25.63;52.94
47716;BME280;33476;50.984;3.538;2023-06-22T08:55:21;101724.53;;;25.67;53.18
47716;BME280;33476;50.984;3.538;2023-06-22T08:57:46;101722.00;;;25.65;52.81
47716;BME280;33476;50.984;3.538;2023-06-22T09:00:12;101730.31;;;25.62;52.85
47716;BME280;33476;50.984;3.538;2023-06-22T09:02:46;101731.88;;;25.55;52.60
47716;BME280;33476;50.984;3.538;2023-06-22T09:05:12;101728.53;;;25.53;52.69
47716;BME280;33476;50.984;3.538;2023-06-22T09:07:37;101735.31;;;25.47;52.53
47716;BME280;33476;50.984;3.538;2023-06-22T09:10:03;101737.44;;;25.44;52.29
47716;BME280;33476;50.984;3.538;2023-06-22T09:12:31;101736.75;;;25.42;52.55
47716;BME280;33476;50.984;3.538;2023-06-22T09:14:58;101735.34;;;25.38;52.41
47716;BME280;33476;50.984;3.538;2023-06-22T09:17:25;101742.16;;;25.32;52.49
47716;BME280;33476;50.984;3.538;2023-06-22T09:19:51;101738.91;;;25.29;52.39
47716;BME280;33476;50.984;3.538;2023-06-22T09:22:16;101741.75;;;25.27;52.85
47716;BME280;33476;50.984;3.538;2023-06-22T09:24:42;101737.22;;;25.28;52.66
47716;BME280;33476;50.984;3.538;2023-06-22T09:27:07;101737.53;;;25.25;52.93
47716;BME280;33476;50.984;3.538;2023-06-22T09:29:33;101744.56;;;25.26;53.18
47716;BME280;33476;50.984;3.538;2023-06-22T09:31:59;101744.84;;;25.23;53.06
47716;BME280;33476;50.984;3.538;2023-06-22T09:34:25;101750.50;;;25.19;53.20
47716;BME280;33476;50.984;3.538;2023-06-22T09:36:50;101751.19;;;25.21;53.05
47716;BME280;33476;50.984;3.538;2023-06-22T09:39:18;101748.66;;;25.20;53.32
47716;BME280;33476;50.984;3.538;2023-06-22T09:41:43;101754.16;;;25.18;53.50
47716;BME280;33476;50.984;3.538;2023-06-22T09:44:09;101749.09;;;25.15;53.44
47716;BME280;33476;50.984;3.538;2023-06-22T09:46:34;101750.22;;;25.13;53.75
47716;BME280;33476;50.984;3.538;2023-06-22T09:49:00;101752.91;;;25.13;53.87
47716;BME280;33476;50.984;3.538;2023-06-22T09:51:25;101753.59;;;25.15;53.50
47716;BME280;33476;50.984;3.538;2023-06-22T09:53:51;101757.41;;;25.12;53.74
47716;BME280;33476;50.984;3.538;2023-06-22T09:56:18;101753.75;;;25.13;53.86
47716;BME280;33476;50.984;3.538;2023-06-22T09:58:45;101760.91;;;25.13;53.44
47716;BME280;33476;50.984;3.538;2023-06-22T10:01:11;101755.72;;;25.11;54.10
47716;BME280;33476;50.984;3.538;2023-06-22T10:03:37;101757.25;;;25.14;54.42
47716;BME280;33476;50.984;3.538;2023-06-22T10:06:03;101757.09;;;25.15;54.98
47716;BME280;33476;50.984;3.538;2023-06-22T10:08:28;101755.56;;;25.13;55.28
47716;BME280;33476;50.984;3.538;2023-06-22T10:10:54;101751.38;;;25.10;55.01
47716;BME280;33476;50.984;3.538;2023-06-22T10:13:19;101752.38;;;25.09;55.45
47716;BME280;33476;50.984;3.538;2023-06-22T10:15:45;101746.44;;;25.06;55.95
47716;BME280;33476;50.984;3.538;2023-06-22T10:18:15;101750.13;;;25.05;56.81
47716;BME280;33476;50.984;3.538;2023-06-22T10:20:41;101741.25;;;25.04;57.24
47716;BME280;33476;50.984;3.538;2023-06-22T10:23:06;101743.94;;;25.04;57.70
47716;BME280;33476;50.984;3.538;2023-06-22T10:25:32;101749.00;;;25.07;57.57
47716;BME280;33476;50.984;3.538;2023-06-22T10:27:57;101749.97;;;25.06;57.51
47716;BME280;33476;50.984;3.538;2023-06-22T10:30:22;101747.03;;;25.00;56.88
47716;BME280;33476;50.984;3.538;2023-06-22T10:32:48;101741.09;;;24.96;57.04
47716;BME280;33476;50.984;3.538;2023-06-22T10:35:14;101742.94;;;24.96;57.21
47716;BME280;33476;50.984;3.538;2023-06-22T10:37:44;101741.09;;;24.96;57.21
47716;BME280;33476;50.984;3.538;2023-06-22T10:40:15;101744.75;;;24.95;57.37
47716;BME280;33476;50.984;3.538;2023-06-22T10:42:40;101746.03;;;25.01;56.73
47716;BME280;33476;50.984;3.538;2023-06-22T10:45:07;101744.19;;;25.01;57.18
47716;BME280;33476;50.984;3.538;2023-06-22T10:47:33;101747.97;;;24.99;57.64
47716;BME280;33476;50.984;3.538;2023-06-22T10:49:58;101746.31;;;24.98;58.26
47716;BME280;33476;50.984;3.538;2023-06-22T10:52:23;101741.69;;;25.00;58.78
47716;BME280;33476;50.984;3.538;2023-06-22T10:54:48;101746.19;;;24.99;58.94
47716;BME280;33476;50.984;3.538;2023-06-22T10:57:14;101746.44;;;24.96;59.25
47716;BME280;33476;50.984;3.538;2023-06-22T10:59:39;101743.63;;;24.98;60.04
47716;BME280;33476;50.984;3.538;2023-06-22T11:02:05;101743.34;;;25.01;60.12
47716;BME280;33476;50.984;3.538;2023-06-22T11:04:30;101738.16;;;24.99;59.30
47716;BME280;33476;50.984;3.538;2023-06-22T11:06:55;101729.16;;;25.00;59.20
47716;BME280;33476;50.984;3.538;2023-06-22T11:09:21;101728.44;;;24.98;59.75
47716;BME280;33476;50.984;3.538;2023-06-22T11:11:47;101728.44;;;24.98;59.12
47716;BME280;33476;50.984;3.538;2023-06-22T11:14:13;101729.16;;;24.90;58.14
47716;BME280;33476;50.984;3.538;2023-06-22T11:16:39;101722.44;;;24.86;58.29
47716;BME280;33476;50.984;3.538;2023-06-22T11:19:05;101725.94;;;24.87;58.54
47716;BME280;33476;50.984;3.538;2023-06-22T11:21:30;101720.75;;;24.85;58.20
47716;BME280;33476;50.984;3.538;2023-06-22T11:23:56;101729.19;;;24.81;57.69
47716;BME280;33476;50.984;3.538;2023-06-22T11:26:22;101734.28;;;24.74;56.72
47716;BME280;33476;50.984;3.538;2023-06-22T11:28:47;101721.63;;;24.67;54.92
47716;BME280;33476;50.984;3.538;2023-06-22T11:31:12;101722.06;;;24.62;53.79
47716;BME280;33476;50.984;3.538;2023-06-22T11:33:38;101710.69;;;24.60;53.53
47716;BME280;33476;50.984;3.538;2023-06-22T11:36:03;101717.13;;;24.57;53.07
47716;BME280;33476;50.984;3.538;2023-06-22T11:38:29;101714.91;;;24.53;53.46
47716;BME280;33476;50.984;3.538;2023-06-22T11:40:55;101713.38;;;24.50;53.34
47716;BME280;33476;50.984;3.538;2023-06-22T11:43:21;101718.56;;;24.52;53.18
47716;BME280;33476;50.984;3.538;2023-06-22T11:45:46;101713.91;;;24.54;53.40
47716;BME280;33476;50.984;3.538;2023-06-22T11:48:12;101706.88;;;24.53;53.04
47716;BME280;33476;50.984;3.538;2023-06-22T11:50:37;101704.06;;;24.54;54.20
47716;BME280;33476;50.984;3.538;2023-06-22T11:53:02;101703.22;;;24.54;54.40
47716;BME280;33476;50.984;3.538;2023-06-22T11:55:28;101693.25;;;24.56;55.33
47716;BME280;33476;50.984;3.538;2023-06-22T11:57:56;101689.72;;;24.55;55.82
47716;BME280;33476;50.984;3.538;2023-06-22T12:00:23;101695.75;;;24.57;56.15
47716;BME280;33476;50.984;3.538;2023-06-22T12:02:50;101692.25;;;24.57;57.39
47716;BME280;33476;50.984;3.538;2023-06-22T12:05:19;101702.81;;;24.58;58.21
47716;BME280;33476;50.984;3.538;2023-06-22T12:07:46;101696.91;;;24.55;59.00
47716;BME280;33476;50.984;3.538;2023-06-22T12:10:11;101697.47;;;24.49;59.03
47716;BME280;33476;50.984;3.538;2023-06-22T12:12:37;101701.41;;;24.45;59.75
47716;BME280;33476;50.984;3.538;2023-06-22T12:15:02;101692.41;;;24.46;60.95
47716;BME280;33476;50.984;3.538;2023-06-22T12:17:29;101694.78;;;24.49;61.35
47716;BME280;33476;50.984;3.538;2023-06-22T12:19:55;101697.34;;;24.50;61.33
47716;BME280;33476;50.984;3.538;2023-06-22T12:22:20;101697.19;;;24.52;61.77
47716;BME280;33476;50.984;3.538;2023-06-22T12:24:46;101694.38;;;24.53;61.78
47716;BME280;33476;50.984;3.538;2023-06-22T12:27:11;101699.41;;;24.56;62.26
47716;BME280;33476;50.984;3.538;2023-06-22T12:29:37;101694.50;;;24.61;62.10
47716;BME280;33476;50.984;3.538;2023-06-22T12:32:02;101685.50;;;24.62;61.84
47716;BME280;33476;50.984;3.538;2023-06-22T12:34:28;101697.72;;;24.65;62.39
47716;BME280;33476;50.984;3.538;2023-06-22T12:36:53;101696.47;;;24.69;62.98
47716;BME280;33476;50.984;3.538;2023-06-22T12:39:20;101702.22;;;24.74;63.72
47716;BME280;33476;50.984;3.538;2023-06-22T12:41:45;101700.94;;;24.78;63.00
47716;BME280;33476;50.984;3.538;2023-06-22T12:44:10;101703.31;;;24.81;62.33
47716;BME280;33476;50.984;3.538;2023-06-22T12:46:36;101695.28;;;24.81;61.92
47716;BME280;33476;50.984;3.538;2023-06-22T12:49:04;101693.44;;;24.82;61.64
47716;BME280;33476;50.984;3.538;2023-06-22T12:51:30;101697.69;;;24.84;61.19